Time;durP1;ratioP1;P1;durP2;ratioP2;P2;SDS_P1;SDS_P2;PMS_P1;PMS_P2;Temp;Humidity;BMP_temperature;BMP_pressure;BME280_temperature;BME280_humidity;BME280_pressure;Samples;Min_cycle;Max_cycle;Signal;HPM_P1;HPM_P2
2024/05/02 00:00:15;;;;;;;4.55;3.67;;;;;;;16.49;35.72;96852.88;5394202;26;20026;-43
2024/05/02 00:02:44;;;;;;;4.13;3.33;;;;;;;16.53;35.67;96853.84;5396184;26;20419;-44
2024/05/02 00:05:14;;;;;;;3.72;3.40;;;;;;;16.40;36.27;96847.53;5390575;26;20014;-44
2024/05/02 00:07:44;;;;;;;4.88;4.15;;;;;;;16.19;36.58;96854.44;5395550;26;20652;-43
2024/05/02 00:10:13;;;;;;;3.75;3.45;;;;;;;16.14;36.37;96855.38;5390331;26;20097;-43
2024/05/02 00:12:43;;;;;;;5.85;3.38;;;;;;;16.13;36.53;96858.34;5396139;26;20019;-44
2024/05/02 00:15:15;;;;;;;4.18;3.60;;;;;;;16.07;36.58;96860.34;5397950;26;21259;-44
2024/05/02 00:17:45;;;;;;;4.03;3.58;;;;;;;16.04;36.49;96847.59;5393378;26;20111;-43
2024/05/02 00:20:15;;;;;;;4.38;3.97;;;;;;;16.06;36.59;96848.88;5398764;26;20023;-44
2024/05/02 00:22:44;;;;;;;3.20;3.00;;;;;;;16.07;36.70;96850.47;5289563;27;21111;-43
2024/05/02 00:25:15;;;;;;;3.40;3.20;;;;;;;16.09;36.55;96847.50;5274855;27;20457;-44
2024/05/02 00:27:44;;;;;;;3.72;3.42;;;;;;;16.11;36.42;96845.31;5279634;26;20089;-44
2024/05/02 00:30:17;;;;;;;5.07;3.83;;;;;;;16.12;36.56;96844.25;5258972;27;21600;-44
2024/05/02 00:32:46;;;;;;;3.78;3.35;;;;;;;16.16;36.44;96842.53;5266598;27;20156;-44
2024/05/02 00:35:16;;;;;;;4.53;3.72;;;;;;;16.16;36.39;96852.41;5288652;27;20240;-44
2024/05/02 00:37:46;;;;;;;4.43;3.35;;;;;;;16.19;36.37;96846.44;5266760;27;20766;-43
2024/05/02 00:40:16;;;;;;;4.65;4.10;;;;;;;16.11;36.60;96842.66;5304347;26;20738;-44
2024/05/02 00:42:52;;;;;;;4.32;3.75;;;;;;;15.84;36.85;96848.88;5398952;26;20807;-44
2024/05/02 00:45:25;;;;;;;4.00;3.65;;;;;;;15.75;36.92;96838.19;5397431;26;20967;-44
2024/05/02 00:47:55;;;;;;;4.43;3.67;;;;;;;15.72;37.05;96844.09;5398748;26;21048;-44
2024/05/02 00:50:25;;;;;;;4.97;3.20;;;;;;;15.62;37.12;96842.44;5397443;26;20532;-43
2024/05/02 00:52:55;;;;;;;4.30;3.83;;;;;;;15.60;37.22;96841.97;5396230;26;20004;-44
2024/05/02 00:55:26;;;;;;;5.78;4.00;;;;;;;15.54;37.26;96840.53;5398080;26;20011;-43
2024/05/02 00:57:55;;;;;;;5.47;4.47;;;;;;;15.46;37.53;96844.66;5392512;26;20146;-44
2024/05/02 01:00:28;;;;;;;4.90;3.97;;;;;;;15.42;37.65;96845.59;5395050;26;20019;-44
2024/05/02 01:02:57;;;;;;;5.20;4.28;;;;;;;15.40;37.70;96840.56;5395412;26;20373;-43
2024/05/02 01:05:27;;;;;;;4.20;3.80;;;;;;;15.40;37.89;96839.78;5399616;26;19999;-43
2024/05/02 01:07:56;;;;;;;4.63;4.10;;;;;;;15.40;37.73;96834.47;5395558;26;20008;-45
2024/05/02 01:10:26;;;;;;;4.32;3.65;;;;;;;15.45;37.72;96829.81;5399988;26;20003;-43
2024/05/02 01:12:56;;;;;;;3.28;3.08;;;;;;;15.49;37.55;96825.44;5397217;26;20011;-44
2024/05/02 01:15:28;;;;;;;3.95;3.63;;;;;;;15.52;37.54;96826.75;5397579;26;20500;-43
2024/05/02 01:17:58;;;;;;;4.40;4.00;;;;;;;15.58;37.32;96830.06;5395526;26;20656;-43
2024/05/02 01:20:27;;;;;;;4.07;3.65;;;;;;;15.59;37.46;96831.63;5395131;26;20016;-44
2024/05/02 01:22:59;;;;;;;3.92;3.33;;;;;;;15.56;37.33;96829.59;5398862;26;20364;-43
2024/05/02 01:25:29;;;;;;;5.32;4.28;;;;;;;15.57;37.36;96821.31;5399640;26;20782;-44
2024/05/02 01:27:58;;;;;;;5.00;3.65;;;;;;;15.59;37.25;96826.28;5399687;26;19999;-44
2024/05/02 01:30:28;;;;;;;3.83;3.53;;;;;;;15.53;37.28;96822.97;5400944;26;20073;-44
2024/05/02 01:32:58;;;;;;;5.28;4.07;;;;;;;15.42;37.43;96822.41;5400839;26;20003;-43
2024/05/02 01:35:27;;;;;;;4.68;4.18;;;;;;;15.38;37.40;96824.13;5397462;26;20057;-43
2024/05/02 01:37:59;;;;;;;4.35;4.00;;;;;;;15.27;37.80;96814.78;5391309;26;20004;-43
2024/05/02 01:40:29;;;;;;;5.30;3.90;;;;;;;15.32;37.74;96825.31;5395222;26;20003;-44
2024/05/02 01:42:59;;;;;;;5.50;3.88;;;;;;;15.32;37.25;96820.78;5394658;26;20007;-44
2024/05/02 01:45:29;;;;;;;4.47;4.07;;;;;;;15.27;37.48;96817.44;5397442;26;20025;-43
2024/05/02 01:47:58;;;;;;;4.82;3.72;;;;;;;15.23;37.68;96825.19;5396677;26;20026;-43
2024/05/02 01:50:28;;;;;;;4.32;3.47;;;;;;;15.17;37.85;96817.66;5401403;26;20003;-44
2024/05/02 01:53:00;;;;;;;4.20;3.78;;;;;;;15.17;37.91;96817.66;5393447;26;20497;-43
2024/05/02 01:55:30;;;;;;;4.30;3.88;;;;;;;15.22;37.74;96810.34;5400200;26;20829;-43
2024/05/02 01:57:59;;;;;;;5.95;4.05;;;;;;;15.23;37.71;96806.56;5394110;26;20013;-44
2024/05/02 02:00:29;;;;;;;3.80;3.50;;;;;;;15.23;37.77;96805.81;5396908;26;21875;-44
2024/05/02 02:02:58;;;;;;;3.97;3.63;;;;;;;15.24;37.68;96804.72;5394367;26;20004;-44
2024/05/02 02:05:28;;;;;;;4.88;3.72;;;;;;;15.24;37.65;96808.16;5400355;26;20007;-44
2024/05/02 02:08:00;;;;;;;4.90;4.30;;;;;;;15.24;37.63;96797.53;5391945;26;20747;-44
2024/05/02 02:10:30;;;;;;;4.13;3.50;;;;;;;15.22;37.65;96790.91;5393086;26;21426;-44
2024/05/02 02:12:59;;;;;;;5.40;4.07;;;;;;;15.19;37.78;96792.31;5389644;26;20018;-44
2024/05/02 02:15:29;;;;;;;5.00;4.38;;;;;;;15.19;37.78;96804.84;5397270;26;20781;-44
2024/05/02 02:17:59;;;;;;;4.70;4.15;;;;;;;14.97;37.99;96809.00;5399078;26;20000;-44
2024/05/02 02:20:28;;;;;;;5.13;4.00;;;;;;;14.87;38.21;96809.22;5397045;26;20026;-44
2024/05/02 02:23:00;;;;;;;4.38;3.97;;;;;;;14.87;38.36;96810.00;5397761;26;20117;-44
2024/05/02 02:25:30;;;;;;;4.30;3.90;;;;;;;14.90;38.26;96804.09;5399541;26;20531;-44
2024/05/02 02:28:00;;;;;;;4.45;3.63;;;;;;;14.94;38.09;96806.94;5395366;26;20050;-44
2024/05/02 02:30:29;;;;;;;4.20;3.80;;;;;;;14.94;37.82;96804.28;5398005;26;20080;-43
2024/05/02 02:32:59;;;;;;;5.20;3.90;;;;;;;14.93;37.84;96808.81;5392887;26;20287;-44
2024/05/02 02:35:35;;;;;;;4.20;3.85;;;;;;;14.93;38.01;96803.47;5398240;26;20004;-44
2024/05/02 02:38:08;;;;;;;4.38;3.95;;;;;;;14.92;38.08;96798.50;5398812;26;20558;-44
2024/05/02 02:40:38;;;;;;;5.97;3.85;;;;;;;14.90;38.09;96795.31;5398954;26;20804;-44
2024/05/02 02:43:07;;;;;;;4.72;3.92;;;;;;;14.78;37.91;96796.63;5397959;26;20007;-43
2024/05/02 02:45:37;;;;;;;4.93;4.07;;;;;;;14.60;38.48;96794.88;5399509;26;20003;-43
2024/05/02 02:48:07;;;;;;;4.20;3.80;;;;;;;14.51;38.72;96792.13;5396051;26;20012;-43
2024/05/02 02:50:37;;;;;;;5.68;4.63;;;;;;;14.37;39.03;96789.44;5398698;26;20574;-43
2024/05/02 02:53:10;;;;;;;4.90;4.10;;;;;;;14.23;39.12;96795.81;5400160;26;20050;-43
2024/05/02 02:55:39;;;;;;;5.85;5.00;;;;;;;14.14;39.20;96793.03;5397158;26;20427;-43
2024/05/02 02:58:10;;;;;;;5.60;4.43;;;;;;;14.19;39.31;96790.28;5397189;26;20024;-44
2024/05/02 03:00:41;;;;;;;6.82;4.82;;;;;;;14.18;39.10;96788.72;5398678;26;20683;-43
2024/05/02 03:03:10;;;;;;;7.00;5.10;;;;;;;14.26;39.27;96796.00;5396260;26;20003;-43
2024/05/02 03:05:40;;;;;;;5.47;4.95;;;;;;;14.32;38.94;96794.06;5400051;26;20349;-43
2024/05/02 03:08:12;;;;;;;5.35;4.85;;;;;;;14.36;38.90;96798.47;5399473;26;20007;-44
2024/05/02 03:10:41;;;;;;;7.05;5.50;;;;;;;14.43;38.90;96794.66;5393333;26;20436;-44
2024/05/02 03:13:11;;;;;;;5.72;4.93;;;;;;;14.47;38.58;96785.81;5393394;26;20016;-43
2024/05/02 03:15:41;;;;;;;5.38;4.22;;;;;;;14.46;38.57;96786.09;5391303;26;21028;-44
2024/05/02 03:18:10;;;;;;;4.85;4.30;;;;;;;14.47;38.87;96788.47;5398364;26;20003;-43
2024/05/02 03:20:40;;;;;;;4.43;4.03;;;;;;;14.47;38.81;96796.44;5395103;26;21506;-44
2024/05/02 03:23:12;;;;;;;4.55;4.13;;;;;;;14.50;38.55;96805.69;5399232;26;19999;-43
2024/05/02 03:25:42;;;;;;;5.40;4.40;;;;;;;14.50;38.51;96805.69;5396966;26;20534;-44
2024/05/02 03:28:12;;;;;;;6.20;4.18;;;;;;;14.53;38.30;96791.81;5395617;26;22008;-44
2024/05/02 03:30:42;;;;;;;4.70;4.20;;;;;;;14.43;38.62;96794.66;5399263;26;22697;-43
2024/05/02 03:33:12;;;;;;;5.40;4.35;;;;;;;14.46;38.53;96789.56;5397405;26;21752;-43
2024/05/02 03:35:41;;;;;;;5.97;4.72;;;;;;;14.48;38.38;96798.03;5397842;26;20556;-43
2024/05/02 03:38:14;;;;;;;5.80;5.10;;;;;;;14.50;38.28;96784.44;5396935;26;21041;-44
2024/05/02 03:40:44;;;;;;;4.40;3.92;;;;;;;14.48;38.66;96781.31;5393067;26;22711;-44
2024/05/02 03:43:13;;;;;;;5.53;4.25;;;;;;;14.49;38.40;96780.19;5397762;26;20000;-43
2024/05/02 03:45:43;;;;;;;5.13;4.72;;;;;;;14.48;38.38;96786.63;5392524;26;20577;-44
2024/05/02 03:48:13;;;;;;;4.60;4.20;;;;;;;14.50;38.54;96787.09;5396016;26;20562;-44
2024/05/02 03:50:43;;;;;;;4.50;4.05;;;;;;;14.52;38.36;96790.25;5398369;26;20016;-44
2024/05/02 03:53:16;;;;;;;4.28;3.88;;;;;;;14.51;38.22;96791.31;5398314;26;20945;-43
2024/05/02 03:55:45;;;;;;;7.72;6.78;;;;;;;14.50;38.25;96803.81;5392721;26;20080;-44
2024/05/02 03:58:15;;;;;;;15.02;9.80;;;;;;;14.50;38.06;96800.38;5256114;27;20891;-43
2024/05/02 04:00:44;;;;;;;7.68;5.63;;;;;;;14.46;38.07;96797.53;5254458;27;22436;-44
2024/05/02 04:03:14;;;;;;;6.13;5.40;;;;;;;14.45;38.01;96795.91;5260627;27;20535;-44
2024/05/02 04:05:43;;;;;;;6.05;5.47;;;;;;;14.46;38.26;96786.09;5250480;27;20011;-43
2024/05/02 04:08:16;;;;;;;4.63;4.22;;;;;;;14.41;38.29;96792.28;5247864;27;20007;-43
2024/05/02 04:10:45;;;;;;;5.90;4.38;;;;;;;14.39;38.30;96800.53;5248640;27;21047;-43
2024/05/02 04:13:15;;;;;;;5.15;4.05;;;;;;;14.42;38.33;96806.34;5250888;27;20864;-44
2024/05/02 04:15:44;;;;;;;4.82;4.43;;;;;;;14.39;38.36;96811.19;5284700;26;20022;-43
2024/05/02 04:18:14;;;;;;;5.28;4.78;;;;;;;14.37;38.29;96813.34;5404041;26;20333;-43
2024/05/02 04:20:44;;;;;;;7.00;4.75;;;;;;;14.32;38.60;96810.78;5402861;26;20000;-43
2024/05/02 04:23:16;;;;;;;4.85;4.28;;;;;;;14.29;38.71;96806.03;5402345;26;20454;-44
2024/05/02 04:25:45;;;;;;;4.60;4.20;;;;;;;14.32;38.53;96821.41;5401199;26;19999;-44
2024/05/02 04:28:15;;;;;;;5.45;4.20;;;;;;;14.36;38.54;96826.91;5402399;26;19996;-44
2024/05/02 04:30:45;;;;;;;5.93;5.22;;;;;;;14.36;38.48;96827.69;5402817;26;20518;-44
2024/05/02 04:33:15;;;;;;;7.30;5.35;;;;;;;14.33;38.30;96830.94;5394411;26;20375;-43
2024/05/02 04:35:44;;;;;;;4.78;4.28;;;;;;;14.31;38.71;96827.78;5280262;26;20047;-44
2024/05/02 04:38:16;;;;;;;4.28;3.83;;;;;;;14.31;38.64;96830.44;5284241;26;20029;-44
2024/05/02 04:40:47;;;;;;;6.78;4.65;;;;;;;14.36;38.37;96834.88;5281349;26;20009;-45
2024/05/02 04:43:16;;;;;;;8.88;4.38;;;;;;;14.32;38.89;96831.25;5292049;26;20083;-45
2024/05/02 04:45:47;;;;;;;4.85;4.35;;;;;;;14.40;38.25;96836.63;5295299;26;20482;-45
2024/05/02 04:48:16;;;;;;;7.40;6.05;;;;;;;14.47;38.22;96833.63;5276743;26;20017;-45
2024/05/02 04:50:46;;;;;;;6.80;4.68;;;;;;;14.43;38.47;96834.50;5289269;26;20059;-44
2024/05/02 04:53:18;;;;;;;6.10;5.05;;;;;;;14.40;38.62;96830.56;5306496;26;20326;-44
2024/05/02 04:55:47;;;;;;;5.22;4.72;;;;;;;14.45;38.43;96835.00;5401109;26;20014;-45
2024/05/02 04:58:19;;;;;;;6.72;4.75;;;;;;;14.31;38.43;96829.66;5399597;26;20011;-44
2024/05/02 05:00:48;;;;;;;5.88;5.28;;;;;;;14.35;38.34;96828.78;5400837;26;20008;-45
2024/05/02 05:03:18;;;;;;;5.20;4.70;;;;;;;14.37;38.36;96823.97;5398843;26;20015;-44
2024/05/02 05:05:48;;;;;;;5.13;4.63;;;;;;;14.42;38.19;96819.63;5398964;26;20116;-46
2024/05/02 05:08:20;;;;;;;6.85;5.18;;;;;;;14.45;38.25;96827.03;5400288;26;20338;-45
2024/05/02 05:10:50;;;;;;;5.38;4.57;;;;;;;14.48;38.18;96827.25;5388282;26;20784;-45
2024/05/02 05:13:20;;;;;;;5.25;4.72;;;;;;;14.53;38.38;96832.47;5409913;26;20011;-44
2024/05/02 05:15:49;;;;;;;5.13;4.68;;;;;;;14.57;38.16;96840.63;5392672;26;20015;-45
2024/05/02 05:18:19;;;;;;;5.25;4.63;;;;;;;14.64;38.46;96843.69;5380713;26;19996;-46
2024/05/02 05:20:48;;;;;;;6.80;4.53;;;;;;;14.66;38.41;96841.53;5387594;26;20513;-45
2024/05/02 05:23:20;;;;;;;4.63;4.20;;;;;;;14.67;38.61;96852.94;5389999;26;20803;-45
2024/05/02 05:25:50;;;;;;;4.60;4.20;;;;;;;14.71;38.39;96853.94;5399181;26;21059;-45
2024/05/02 05:28:19;;;;;;;7.47;5.07;;;;;;;14.73;38.50;96855.19;5391470;26;20346;-45
2024/05/02 05:30:49;;;;;;;5.72;4.90;;;;;;;14.78;38.10;96860.44;5389737;26;20067;-45
2024/05/02 05:33:20;;;;;;;5.85;5.35;;;;;;;14.82;38.07;96854.53;5400403;26;22614;-45
2024/05/02 05:35:49;;;;;;;;;;;;;;;14.78;38.20;96855.09;5402343;26;21667;-45
2024/05/02 05:38:22;;;;;;;6.18;4.93;;;;;;;14.86;38.07;96856.28;5398879;26;21992;-45
2024/05/02 05:40:51;;;;;;;7.15;5.78;;;;;;;14.85;38.20;96859.22;5400210;26;21642;-45
2024/05/02 05:43:21;;;;;;;10.32;6.07;;;;;;;14.48;38.84;96853.81;5398632;26;20105;-45
2024/05/02 05:45:50;;;;;;;6.63;5.32;;;;;;;14.45;38.94;96846.41;5398543;26;20709;-46
2024/05/02 05:48:20;;;;;;;6.50;5.15;;;;;;;14.45;38.72;96845.63;5399790;26;21949;-46
2024/05/02 05:50:49;;;;;;;7.15;5.20;;;;;;;14.47;38.87;96843.47;5389761;26;20092;-45
2024/05/02 05:53:23;;;;;;;5.88;5.28;;;;;;;14.38;39.02;96841.47;5397646;26;21920;-47
2024/05/02 05:55:52;;;;;;;6.10;5.28;;;;;;;14.32;39.40;96842.66;5401127;26;20004;-45
2024/05/02 05:58:22;;;;;;;6.82;5.38;;;;;;;14.42;39.07;96836.34;5396102;26;20292;-45
2024/05/02 06:00:51;;;;;;;8.38;5.60;;;;;;;14.43;38.81;96831.84;5397619;26;20018;-45
2024/05/02 06:03:21;;;;;;;5.35;4.85;;;;;;;14.52;38.96;96838.84;5400175;26;20350;-45
2024/05/02 06:05:51;;;;;;;4.80;4.35;;;;;;;14.66;38.78;96841.53;5396090;26;20129;-45
2024/05/02 06:08:23;;;;;;;6.32;4.88;;;;;;;14.77;38.21;96826.94;5400684;26;20007;-45
2024/05/02 06:10:52;;;;;;;5.85;5.30;;;;;;;14.97;38.35;96819.63;5398177;26;20487;-45
2024/05/02 06:13:22;;;;;;;5.30;4.80;;;;;;;15.21;37.94;96816.72;5398254;26;20004;-45
2024/05/02 06:15:51;;;;;;;6.28;4.80;;;;;;;15.49;37.80;96820.13;5400132;26;20015;-45
2024/05/02 06:18:21;;;;;;;4.65;4.22;;;;;;;15.65;37.69;96819.78;5399158;26;20000;-45
2024/05/02 06:20:50;;;;;;;7.90;4.65;;;;;;;15.83;37.34;96810.81;5393658;26;20004;-45
2024/05/02 06:23:23;;;;;;;5.95;5.00;;;;;;;16.07;37.29;96807.06;5395385;26;20370;-45
2024/05/02 06:25:52;;;;;;;6.85;5.40;;;;;;;16.26;36.60;96812.97;5394452;26;20028;-44
2024/05/02 06:28:22;;;;;;;5.60;4.88;;;;;;;16.44;36.21;96803.16;5393553;26;20456;-45
2024/05/02 06:30:51;;;;;;;7.18;5.25;;;;;;;16.68;36.12;96796.63;5393463;26;20016;-44
2024/05/02 06:33:21;;;;;;;6.28;4.82;;;;;;;16.86;35.47;96802.84;5401140;26;20018;-44
2024/05/02 06:35:50;;;;;;;6.80;5.22;;;;;;;16.96;35.08;96805.19;5392776;26;20014;-45
2024/05/02 06:38:23;;;;;;;5.10;4.45;;;;;;;17.15;34.31;96794.25;5398788;26;21352;-44
2024/05/02 06:40:53;;;;;;;5.47;4.88;;;;;;;17.37;34.65;96779.16;5397652;26;21904;-44
2024/05/02 06:43:23;;;;;;;5.10;4.60;;;;;;;17.59;34.25;96784.38;5384228;26;20088;-45
2024/05/02 06:45:52;;;;;;;5.38;4.50;;;;;;;17.72;33.75;96787.97;5376578;26;20039;-44
2024/05/02 06:48:22;;;;;;;4.97;4.30;;;;;;;17.93;33.52;96788.06;5401414;26;20441;-44
2024/05/02 06:50:51;;;;;;;7.10;5.03;;;;;;;17.95;33.14;96785.09;5400499;26;20016;-45
2024/05/02 06:53:24;;;;;;;6.65;5.15;;;;;;;18.09;32.92;96779.53;5399930;26;20102;-45
2024/05/02 06:55:53;;;;;;;6.65;5.18;;;;;;;18.19;32.82;96781.88;5398240;26;20228;-45
2024/05/02 06:58:23;;;;;;;6.15;4.38;;;;;;;18.25;32.38;96771.81;5399320;26;20003;-45
2024/05/02 07:00:52;;;;;;;5.50;4.13;;;;;;;18.32;32.04;96777.44;5389699;26;20583;-45
2024/05/02 07:03:22;;;;;;;4.88;3.67;;;;;;;18.42;32.21;96771.75;5394213;26;21931;-45
2024/05/02 07:05:52;;;;;;;6.85;4.07;;;;;;;18.41;31.61;96770.16;5400103;26;20560;-45
2024/05/02 07:08:24;;;;;;;5.30;4.57;;;;;;;18.48;31.72;96773.16;5393317;26;20014;-45
2024/05/02 07:10:53;;;;;;;6.85;4.75;;;;;;;18.64;32.09;96768.03;5396629;26;20995;-45
2024/05/02 07:13:23;;;;;;;5.18;4.35;;;;;;;18.86;32.09;96764.25;5405028;26;22737;-45
2024/05/02 07:15:55;;;;;;;5.22;4.20;;;;;;;19.08;32.33;96762.41;5388705;26;20069;-45
2024/05/02 07:18:25;;;;;;;5.78;5.03;;;;;;;19.14;31.89;96758.44;5386273;26;19999;-45
2024/05/02 07:20:54;;;;;;;6.90;4.60;;;;;;;19.18;31.56;96762.00;5398842;26;21950;-44
2024/05/02 07:23:26;;;;;;;6.40;5.03;;;;;;;19.18;30.86;96753.19;5391393;26;20859;-45
2024/05/02 07:25:57;;;;;;;6.38;4.55;;;;;;;19.11;30.58;96759.84;5399279;26;20004;-45
2024/05/02 07:28:26;;;;;;;6.45;5.05;;;;;;;19.01;30.06;96756.78;5397742;26;21082;-45
2024/05/02 07:30:56;;;;;;;6.20;4.57;;;;;;;18.90;30.43;96759.81;5387286;26;20854;-45
2024/05/02 07:33:25;;;;;;;5.38;4.82;;;;;;;18.82;30.68;96749.97;5391873;26;20732;-45
2024/05/02 07:35:55;;;;;;;6.43;4.28;;;;;;;18.90;31.28;96749.09;5369496;26;20579;-46
2024/05/02 07:38:27;;;;;;;5.55;4.28;;;;;;;19.02;31.00;96750.34;5396066;26;20004;-45
2024/05/02 07:40:57;;;;;;;8.77;4.53;;;;;;;19.12;30.80;96757.97;5393903;26;19999;-45
2024/05/02 07:43:27;;;;;;;6.47;4.68;;;;;;;19.19;30.70;96749.41;5378016;26;20091;-46
2024/05/02 07:45:59;;;;;;;4.90;4.47;;;;;;;19.28;30.78;96744.78;5397211;26;22370;-46
2024/05/02 07:48:29;;;;;;;4.47;4.07;;;;;;;19.47;30.57;96738.91;5397732;26;20005;-45
2024/05/02 07:50:59;;;;;;;4.57;4.10;;;;;;;19.68;30.38;96725.50;5398346;26;20006;-46
2024/05/02 07:53:31;;;;;;;4.47;4.03;;;;;;;19.89;30.42;96736.16;5396114;26;22392;-45
2024/05/02 07:56:00;;;;;;;4.05;3.42;;;;;;;20.02;29.43;96732.38;5394976;26;22136;-45
2024/05/02 07:58:30;;;;;;;3.90;3.58;;;;;;;20.06;28.88;96735.19;5392804;26;20011;-45
2024/05/02 08:01:00;;;;;;;4.53;3.72;;;;;;;20.11;28.50;96742.19;5390912;26;21066;-45
2024/05/02 08:03:29;;;;;;;5.72;4.20;;;;;;;20.26;28.92;96744.22;5388285;26;20007;-45
2024/05/02 08:05:59;;;;;;;4.50;3.78;;;;;;;20.34;28.44;96743.38;5389043;26;20076;-45
2024/05/02 08:08:31;;;;;;;4.32;3.20;;;;;;;20.47;28.91;96746.81;5395993;26;20022;-45
2024/05/02 08:11:00;;;;;;;4.10;3.67;;;;;;;20.66;28.94;96737.44;5393209;26;22843;-45
2024/05/02 08:13:30;;;;;;;4.28;3.88;;;;;;;20.72;27.88;96734.16;5406061;26;20375;-46
2024/05/02 08:15:59;;;;;;;4.45;4.05;;;;;;;20.63;27.92;96738.09;5393273;26;20452;-45
2024/05/02 08:18:30;;;;;;;4.40;3.95;;;;;;;20.50;28.05;96740.78;5399345;26;19995;-46
2024/05/02 08:20:59;;;;;;;3.80;3.47;;;;;;;20.51;28.47;96746.94;5398089;26;20003;-45
2024/05/02 08:23:32;;;;;;;5.00;4.18;;;;;;;20.62;28.57;96745.38;5397935;26;20275;-46
2024/05/02 08:26:02;;;;;;;4.65;3.53;;;;;;;20.69;28.58;96744.78;5398425;26;20014;-45
2024/05/02 08:28:32;;;;;;;5.20;3.63;;;;;;;20.71;29.18;96754.06;5396840;26;20015;-46
2024/05/02 08:31:01;;;;;;;7.85;4.30;;;;;;;20.90;28.72;96748.13;5398874;26;20420;-45
2024/05/02 08:33:31;;;;;;;4.40;4.00;;;;;;;21.01;27.46;96745.78;5396874;26;20568;-45
2024/05/02 08:36:01;;;;;;;5.35;4.25;;;;;;;21.07;27.86;96751.69;5398812;26;20037;-45
2024/05/02 08:38:33;;;;;;;5.20;4.07;;;;;;;20.96;27.65;96760.22;5396971;26;20062;-46
2024/05/02 08:41:03;;;;;;;7.57;4.85;;;;;;;20.82;27.63;96751.72;5394127;26;20003;-45
2024/05/02 08:43:33;;;;;;;6.10;4.20;;;;;;;20.98;27.63;96739.16;5398593;26;20003;-46
2024/05/02 08:46:04;;;;;;;6.03;4.55;;;;;;;21.11;27.54;96752.56;5384964;26;20460;-45
2024/05/02 08:48:36;;;;;;;5.00;4.30;;;;;;;21.26;28.93;96741.09;5395691;26;20366;-45
2024/05/02 08:51:06;;;;;;;6.40;3.72;;;;;;;21.42;28.91;96743.84;5398094;26;20011;-46
2024/05/02 08:53:38;;;;;;;6.82;4.40;;;;;;;21.64;28.49;96747.09;5397274;26;20019;-45
2024/05/02 08:56:10;;;;;;;7.90;4.32;;;;;;;21.83;27.80;96741.84;5395762;26;20135;-46
2024/05/02 08:58:42;;;;;;;4.60;3.72;;;;;;;22.14;27.96;96743.00;5396402;26;20243;-45
2024/05/02 09:01:12;;;;;;;7.25;4.03;;;;;;;22.43;27.34;96747.16;5395619;26;20012;-47
2024/05/02 09:03:42;;;;;;;6.18;3.60;;;;;;;22.62;27.63;96743.75;5401516;26;20345;-45
2024/05/02 09:06:15;;;;;;;5.47;4.07;;;;;;;22.77;26.90;96747.56;5401095;26;20072;-45
2024/05/02 09:08:48;;;;;;;5.20;4.30;;;;;;;22.70;26.01;96747.34;5375605;26;20708;-45
2024/05/02 09:11:24;;;;;;;4.50;4.00;;;;;;;22.83;25.91;96748.06;5384896;26;20822;-45
2024/05/02 09:13:54;;;;;;;4.20;3.65;;;;;;;22.96;26.41;96751.41;5383039;26;20392;-45
2024/05/02 09:16:23;;;;;;;4.50;4.07;;;;;;;23.10;25.50;96746.31;5395893;26;20579;-45
2024/05/02 09:18:53;;;;;;;5.72;4.18;;;;;;;23.25;25.31;96747.41;5383815;26;21042;-45
2024/05/02 09:21:22;;;;;;;5.70;4.68;;;;;;;23.32;25.78;96744.03;5393677;26;21634;-45
2024/05/02 09:23:54;;;;;;;4.65;3.80;;;;;;;23.42;26.37;96743.50;5399710;26;20831;-45
2024/05/02 09:26:24;;;;;;;5.72;4.13;;;;;;;23.60;26.46;96738.44;5400414;26;21622;-45
2024/05/02 09:29:02;;;;;;;5.18;3.75;;;;;;;23.79;26.21;96735.69;5379992;26;20079;-46
2024/05/02 09:31:32;;;;;;;7.13;4.75;;;;;;;23.19;24.82;96746.09;5390211;26;20080;-45
2024/05/02 09:34:03;;;;;;;4.30;3.90;;;;;;;23.19;25.55;96740.72;5402615;26;20077;-45
2024/05/02 09:36:33;;;;;;;7.03;4.28;;;;;;;23.37;26.26;96736.50;5400868;26;20037;-45
2024/05/02 09:39:08;;;;;;;5.55;4.53;;;;;;;23.38;26.08;96732.66;5401644;26;20334;-45
2024/05/02 09:41:48;;;;;;;5.28;4.05;;;;;;;23.41;26.26;96741.94;5399140;26;20670;-45
2024/05/02 09:44:21;;;;;;;7.05;4.20;;;;;;;23.47;25.32;96735.13;5400044;26;21092;-45
2024/05/02 09:46:54;;;;;;;4.60;4.15;;;;;;;23.15;24.69;96742.56;5401448;26;22543;-45
2024/05/02 09:49:25;;;;;;;6.38;5.55;;;;;;;22.83;25.73;96740.75;5401551;26;20076;-45
2024/05/02 09:51:59;;;;;;;6.95;4.72;;;;;;;22.71;26.12;96737.41;5400927;26;19999;-45
2024/05/02 09:54:33;;;;;;;4.72;4.32;;;;;;;22.67;26.75;96737.31;5397306;26;20345;-45
2024/05/02 09:57:04;;;;;;;5.90;4.10;;;;;;;22.66;27.63;96741.91;5388580;26;20017;-44
2024/05/02 09:59:35;;;;;;;4.35;3.95;;;;;;;22.52;26.94;96733.50;5398211;26;20007;-45
2024/05/02 10:02:04;;;;;;;6.28;4.50;;;;;;;22.32;27.45;96729.22;5398528;26;20449;-45
2024/05/02 10:04:35;;;;;;;6.18;5.40;;;;;;;21.90;28.29;96736.66;5395366;26;19999;-45
2024/05/02 10:07:04;;;;;;;5.35;4.85;;;;;;;21.83;28.09;96741.06;5401760;26;20017;-45
2024/05/02 10:09:37;;;;;;;6.22;5.00;;;;;;;21.79;28.69;96740.22;5401111;26;20041;-45
2024/05/02 10:12:16;;;;;;;6.85;4.45;;;;;;;21.92;28.87;96752.44;5399552;26;19999;-45
2024/05/02 10:14:46;;;;;;;7.53;4.82;;;;;;;21.98;28.52;96751.06;5409431;26;20010;-45
2024/05/02 10:17:17;;;;;;;7.00;5.25;;;;;;;21.89;28.38;96753.91;5399999;26;20015;-45
2024/05/02 10:19:51;;;;;;;7.60;5.07;;;;;;;21.76;29.00;96749.72;5400731;26;20072;-45
2024/05/02 10:22:21;;;;;;;7.15;4.65;;;;;;;21.80;30.33;96747.94;5391150;26;21924;-45
2024/05/02 10:24:58;;;;;;;8.98;4.65;;;;;;;21.97;29.90;96760.25;5392036;26;20077;-45
2024/05/02 10:27:28;;;;;;;7.43;4.68;;;;;;;22.09;30.22;96751.31;5366405;26;20494;-45
2024/05/02 10:29:59;;;;;;;7.63;4.85;;;;;;;22.13;30.29;96755.66;5392126;26;20470;-45
2024/05/02 10:32:28;;;;;;;6.35;4.80;;;;;;;22.06;30.46;96754.69;5399632;26;20000;-45
2024/05/02 10:34:58;;;;;;;7.28;5.47;;;;;;;22.07;30.59;96748.97;5400252;26;20019;-43
2024/05/02 10:37:28;;;;;;;7.47;4.55;;;;;;;22.08;30.52;96747.88;5400662;26;20012;-44
2024/05/02 10:40:02;;;;;;;7.82;5.47;;;;;;;22.01;29.88;96746.88;5400537;26;24433;-45
2024/05/02 10:42:33;;;;;;;7.07;4.65;;;;;;;21.84;30.72;96746.09;5398962;26;20664;-45
2024/05/02 10:45:04;;;;;;;7.40;4.47;;;;;;;22.01;30.40;96753.03;5399945;26;20743;-45
2024/05/02 10:47:34;;;;;;;6.85;4.45;;;;;;;22.03;30.72;96747.31;5398340;26;20275;-45
2024/05/02 10:50:03;;;;;;;5.63;4.45;;;;;;;22.13;30.75;96752.97;5401600;26;20073;-45
2024/05/02 10:52:33;;;;;;;7.45;5.25;;;;;;;22.15;30.71;96746.47;5389076;26;20036;-45
2024/05/02 10:55:07;;;;;;;6.35;4.90;;;;;;;22.21;30.49;96751.28;5397201;26;20000;-45
2024/05/02 10:57:37;;;;;;;7.18;5.55;;;;;;;22.25;31.05;96749.44;5398969;26;20715;-45
2024/05/02 11:00:08;;;;;;;8.48;5.43;;;;;;;22.19;30.05;96750.84;5396900;26;20364;-45
2024/05/02 11:02:37;;;;;;;6.13;4.72;;;;;;;22.19;30.76;96750.03;5399162;26;20767;-45
2024/05/02 11:05:07;;;;;;;10.98;5.80;;;;;;;21.97;30.65;96754.88;5400485;26;20205;-45
2024/05/02 11:07:36;;;;;;;9.50;5.97;;;;;;;21.57;31.45;96753.06;5399712;26;20560;-45
2024/05/02 11:10:15;;;;;;;6.43;5.15;;;;;;;21.63;30.95;96746.34;5400092;26;20018;-45
2024/05/02 11:12:44;;;;;;;5.72;4.93;;;;;;;21.88;31.52;96746.19;5397089;26;21896;-45
2024/05/02 11:15:14;;;;;;;6.32;4.55;;;;;;;22.11;30.96;96743.69;5411019;26;20619;-45
2024/05/02 11:17:44;;;;;;;5.93;4.68;;;;;;;22.28;31.31;96747.97;5379316;26;20518;-45
2024/05/02 11:20:15;;;;;;;6.43;5.30;;;;;;;22.15;30.51;96741.88;5399761;26;20003;-44
2024/05/02 11:22:45;;;;;;;7.00;5.38;;;;;;;22.25;30.99;96745.97;5399580;26;20015;-44
2024/05/02 11:25:17;;;;;;;6.45;4.70;;;;;;;22.39;30.83;96750.91;5396788;26;20011;-44
2024/05/02 11:27:49;;;;;;;8.38;5.72;;;;;;;22.52;30.16;96749.66;5400489;26;20003;-45
2024/05/02 11:30:20;;;;;;;7.45;5.03;;;;;;;22.59;30.24;96749.81;5401266;26;19999;-45
2024/05/02 11:32:49;;;;;;;5.88;4.80;;;;;;;22.73;30.19;96749.34;5398098;26;20010;-45
2024/05/02 11:35:19;;;;;;;7.05;5.25;;;;;;;22.78;29.67;96751.03;5398232;26;20383;-45
2024/05/02 11:37:48;;;;;;;7.05;5.45;;;;;;;22.73;28.86;96749.34;5399627;26;19999;-45
2024/05/02 11:40:20;;;;;;;7.70;4.85;;;;;;;22.62;29.51;96759.13;5397522;26;20457;-45
2024/05/02 11:42:50;;;;;;;8.77;4.45;;;;;;;22.62;30.03;96751.03;5396556;26;20012;-45
2024/05/02 11:45:25;;;;;;;6.72;5.00;;;;;;;22.59;30.31;96749.03;5414922;26;19999;-45
2024/05/02 11:47:55;;;;;;;6.68;4.80;;;;;;;22.62;30.02;96751.03;5422158;26;20007;-45